KAUW/AUW METAR and TAF weather

Enter ICAO airport designator
Station Type Date Time Source
KAUW METAR 2019/05/26 00:54 UTC NOAA

KAUW 260054Z AUTO 29011G23KT 10SM FEW055 19/09 A2989 RMK AO2 PK WND 25028/2359 SLP123 T01890089 TSNO $


Station Type Date Time Source
KAUW Decoded METAR 2019/05/26 00:54 UTC NOAA

WAUSAU DOWNTOWN AIRPORT, WI, United States (KAUW) 44-56N 089-37W 362M
May 25, 2019 - 08:54 PM EDT / 2019.05.26 0054 UTC
Wind: from the WNW (290 degrees) at 13 MPH (11 KT) gusting to 26 MPH (23 KT):0
Visibility: 10 mile(s):0
Sky conditions: mostly clear
Temperature: 66.0 F (18.9 C)
Dew Point: 48.0 F (8.9 C)
Relative Humidity: 52%
Pressure (altimeter): 29.89 in. Hg (1012 hPa)
ob: KAUW 260054Z AUTO 29011G23KT 10SM FEW055 19/09 A2989 RMK AO2 PK WND 25028/2359 SLP123 T01890089 TSNO
cycle: 1

Station Type Date Time Source
KAUW TAF 2019/05/25 18:22 UTC NOAA

TAF KAUW 251720Z 2518/2618 27014G25KT P6SM SCT045
FM260000 29009G15KT P6SM SCT050
FM260300 32004KT P6SM SKC
FM261300 02004KT P6SM SKC
FM261600 07006KT P6SM SCT040

Example: see airport list